Springfield, Idaho
Current Conditions -  °F | °C
As of 5:53 AM on Sunday 23 Nov 2014 (Local Time) from KPIH Reporting Station
Clear Clear  
Wind Chill: 19°   Ceiling: Unl
Heat Index: 30°   Visibility: 10mi
Dew Point: 27°   Wind: 16mph
Humidity: 88%   Direction: 230°SW
Pressure: 30.08"   Gusts: NA
Location:  43.08°N, 112.68°W
Report Text: KPIH 231253Z AUTO 23014KT 10SM CLR M01/M03 A3008 RMK AO2 SLP203 T10111028
Loading
Personal Weather Stations






























Interactive Weather Map New forecast layout! Learn more

10-Day Weather Forecast

Advertisements
Track Severe Weather on mobile